createdAt,value
2022-08-05T00:03:18.954Z,100743.75
2022-08-05T00:08:35.038Z,100742.47
2022-08-05T00:13:40.862Z,100726.91
2022-08-05T00:18:48.382Z,100735.75
2022-08-05T00:24:10.791Z,100754.63
2022-08-05T00:29:14.980Z,100743.41
2022-08-05T00:34:55.584Z,100744.78
2022-08-05T00:39:44.100Z,100747.03
2022-08-05T00:44:48.238Z,100741.25
2022-08-05T00:49:51.938Z,100745.78
2022-08-05T00:54:57.382Z,100751.97
2022-08-05T01:00:01.969Z,100743.94
2022-08-05T01:05:09.990Z,100751.84
2022-08-05T01:10:19.418Z,100758.31
2022-08-05T01:15:36.764Z,100749.72
2022-08-05T01:20:51.359Z,100753.09
2022-08-05T01:26:26.224Z,100751.00
2022-08-05T01:31:44.663Z,100757.38
2022-08-05T01:36:51.605Z,100753.50
2022-08-05T01:41:56.594Z,100754.22
2022-08-05T01:47:02.444Z,100773.72
2022-08-05T01:52:17.469Z,100780.56
2022-08-05T01:58:12.867Z,100762.69
2022-08-05T02:02:56.772Z,100759.78
2022-08-05T02:08:01.818Z,100773.47
2022-08-05T02:13:15.995Z,100775.13
2022-08-05T02:18:31.818Z,100780.28
2022-08-05T02:23:41.970Z,100785.28
2022-08-05T02:28:47.974Z,100781.59
2022-08-05T02:33:58.995Z,100790.34
2022-08-05T02:39:08.689Z,100790.63
2022-08-05T02:44:14.237Z,100794.19
2022-08-05T02:49:20.377Z,100798.19
2022-08-05T02:54:35.687Z,100813.19
2022-08-05T02:59:50.194Z,100804.34
2022-08-05T03:04:58.203Z,100806.53
2022-08-05T03:10:02.120Z,100821.78
2022-08-05T03:15:07.495Z,100817.34
2022-08-05T03:20:14.780Z,100824.69
2022-08-05T03:25:33.752Z,100839.06
2022-08-05T03:30:45.068Z,100841.53
2022-08-05T03:35:52.911Z,100840.00
2022-08-05T03:41:00.707Z,100846.44
2022-08-05T03:46:11.919Z,100839.53
2022-08-05T03:52:39.201Z,100846.53
2022-08-05T03:56:50.123Z,100848.66
2022-08-05T04:01:54.321Z,100860.16
2022-08-05T04:07:06.014Z,100871.16
2022-08-05T04:12:23.873Z,100870.59
2022-08-05T04:17:55.813Z,100871.88
2022-08-05T04:22:54.033Z,100884.25
2022-08-05T04:28:00.666Z,100879.34
2022-08-05T04:33:07.668Z,100887.94
2022-08-05T04:38:15.528Z,100884.09
2022-08-05T04:43:22.113Z,100885.59
2022-08-05T04:48:27.660Z,100890.91
2022-08-05T04:53:35.557Z,100878.38
2022-08-05T04:58:42.087Z,100880.84
2022-08-05T05:03:45.753Z,100887.75
2022-08-05T05:08:50.978Z,100891.53
2022-08-05T05:13:55.280Z,100898.72
2022-08-05T05:19:18.098Z,100912.84
2022-08-05T05:24:56.334Z,100908.50
2022-08-05T05:30:03.819Z,100908.78
2022-08-05T05:35:09.282Z,100907.88
2022-08-05T05:40:16.507Z,100911.13
2022-08-05T05:45:24.761Z,100900.53
2022-08-05T05:50:28.560Z,100921.59
2022-08-05T05:55:52.061Z,100917.22
2022-08-05T06:01:02.091Z,100916.63
2022-08-05T06:06:16.091Z,100910.75
2022-08-05T06:11:21.360Z,100905.28
2022-08-05T06:16:28.691Z,100919.25
2022-08-05T06:21:37.578Z,100913.03
2022-08-05T06:26:52.404Z,100915.53
2022-08-05T06:31:56.896Z,100916.78
2022-08-05T06:37:03.333Z,100907.47
2022-08-05T06:42:08.759Z,100916.25
2022-08-05T06:47:29.884Z,100921.59
2022-08-05T06:52:37.221Z,100915.53
2022-08-05T06:57:57.496Z,100918.34
2022-08-05T07:03:07.497Z,100912.97
2022-08-05T07:08:14.415Z,100912.03
2022-08-05T07:13:46.341Z,100908.81
2022-08-05T07:18:47.869Z,100907.66
2022-08-05T07:23:52.358Z,100907.28
2022-08-05T07:28:57.644Z,100909.75
2022-08-05T07:34:03.609Z,100910.25
2022-08-05T07:39:09.318Z,100906.56
2022-08-05T07:44:34.462Z,100912.69
2022-08-05T07:49:43.661Z,100923.59
2022-08-05T07:54:58.000Z,100914.91
2022-08-05T08:00:03.943Z,100920.47
2022-08-05T08:05:07.849Z,100914.97
2022-08-05T08:10:14.950Z,100920.94
2022-08-05T08:15:37.367Z,100914.72
2022-08-05T08:21:02.981Z,100924.34
2022-08-05T08:26:08.120Z,100923.59
2022-08-05T08:31:14.871Z,100911.84
2022-08-05T08:36:38.872Z,100912.19
2022-08-05T08:41:51.899Z,100916.53
2022-08-05T08:47:46.834Z,100908.34
2022-08-05T08:52:31.888Z,100919.84
2022-08-05T08:57:42.277Z,100918.84
2022-08-05T09:02:54.333Z,100923.88
2022-08-05T09:07:59.076Z,100919.78
2022-08-05T09:13:04.735Z,100924.75
2022-08-05T09:18:13.482Z,100921.34
2022-08-05T09:23:21.510Z,100920.31
2022-08-05T09:28:32.154Z,100923.03
2022-08-05T09:33:50.988Z,100928.25
2022-08-05T09:38:59.079Z,100929.28
2022-08-05T09:44:02.754Z,100936.81
2022-08-05T09:49:54.628Z,100939.44
2022-08-05T09:54:56.273Z,100953.34
2022-08-05T10:00:04.759Z,100954.94
2022-08-05T10:05:17.101Z,100951.13
2022-08-05T10:10:28.312Z,100965.03
2022-08-05T10:15:37.285Z,100959.69
2022-08-05T10:20:49.285Z,100967.44
2022-08-05T10:25:53.437Z,100962.81
2022-08-05T10:32:52.340Z,100956.28
2022-08-05T10:36:23.730Z,100955.22
2022-08-05T10:41:45.359Z,100962.81
2022-08-05T10:46:54.024Z,100961.06
2022-08-05T10:52:02.317Z,100967.41
2022-08-05T10:57:06.566Z,100962.31
2022-08-05T11:02:14.293Z,100969.53
2022-08-05T11:08:02.394Z,100971.75
2022-08-05T11:13:09.327Z,100965.53
2022-08-05T11:18:27.232Z,100959.28
2022-08-05T11:24:04.504Z,100967.88
2022-08-05T11:29:06.714Z,100982.25
2022-08-05T11:34:35.507Z,100974.28
2022-08-05T11:40:00.488Z,100973.78
2022-08-05T11:45:14.505Z,100972.84
2022-08-05T11:50:39.182Z,100962.97
2022-08-05T11:55:56.845Z,100981.38
2022-08-05T12:01:03.825Z,100975.13
2022-08-05T12:06:13.228Z,100984.25
2022-08-05T12:11:22.219Z,100982.31
2022-08-05T12:16:27.285Z,100987.53
2022-08-05T12:21:33.862Z,100991.47
2022-08-05T12:26:46.360Z,101000.06
2022-08-05T12:31:53.091Z,100998.41
2022-08-05T12:37:00.668Z,100999.19
2022-08-05T12:42:14.451Z,101004.78
2022-08-05T12:47:30.397Z,101009.06
2022-08-05T12:52:41.845Z,101009.84
2022-08-05T12:58:50.749Z,101022.19
2022-08-05T13:03:12.187Z,101020.47
2022-08-05T13:08:19.755Z,101027.78
2022-08-05T13:14:05.790Z,101040.13
2022-08-05T13:18:59.360Z,101053.81
2022-08-05T13:24:02.946Z,101065.44
2022-08-05T13:29:09.675Z,101069.00
2022-08-05T13:34:23.514Z,101087.41
2022-08-05T13:40:16.646Z,101103.31
2022-08-05T13:44:54.974Z,101098.66
2022-08-05T13:49:59.141Z,101103.94
2022-08-05T13:55:07.921Z,101107.22
2022-08-05T14:00:15.680Z,101111.22
2022-08-05T14:05:48.032Z,101127.00
2022-08-05T14:10:47.659Z,101124.50
2022-08-05T14:16:05.437Z,101129.16
2022-08-05T14:22:07.047Z,101137.63
2022-08-05T14:26:47.172Z,101139.19
2022-08-05T14:32:12.101Z,101156.00
2022-08-05T14:37:45.219Z,101158.34
2022-08-05T14:42:49.575Z,101156.94
2022-08-05T14:48:05.417Z,101165.81
2022-08-05T14:53:12.218Z,101167.28
2022-08-05T14:58:17.334Z,101173.75
2022-08-05T15:03:24.384Z,101186.44
2022-08-05T15:08:57.575Z,101185.38
2022-08-05T15:13:51.679Z,101189.53
2022-08-05T15:18:58.293Z,101185.59
2022-08-05T15:24:04.617Z,101181.84
2022-08-05T15:29:08.193Z,101182.31
2022-08-05T15:34:31.578Z,101183.41
2022-08-05T15:41:00.280Z,101195.00
2022-08-05T15:45:00.827Z,101186.13
2022-08-05T15:50:07.401Z,101199.53
2022-08-05T15:55:15.500Z,101196.47
2022-08-05T16:00:26.380Z,101191.03
2022-08-05T16:05:38.967Z,101193.94
2022-08-05T16:10:42.804Z,101197.47
2022-08-05T16:15:46.861Z,101195.56
2022-08-05T16:20:52.643Z,101196.56
2022-08-05T16:26:05.340Z,101197.66
2022-08-05T16:31:10.558Z,101198.19
2022-08-05T16:36:15.181Z,101197.28
2022-08-05T16:42:15.105Z,101194.72
2022-08-05T16:46:55.636Z,101192.69
2022-08-05T16:52:01.517Z,101187.09
2022-08-05T16:57:06.767Z,101175.28
2022-08-05T17:02:26.108Z,101175.03
2022-08-05T17:07:43.434Z,101174.28
2022-08-05T17:12:57.307Z,101182.88
2022-08-05T17:18:01.353Z,101172.53
2022-08-05T17:23:06.606Z,101169.38
2022-08-05T17:28:10.209Z,101169.75
2022-08-05T17:33:13.799Z,101158.66
2022-08-05T17:38:19.068Z,101161.59
2022-08-05T17:43:46.980Z,101162.91
2022-08-05T17:48:47.559Z,101160.72
2022-08-05T17:53:54.724Z,101158.63
2022-08-05T17:58:58.605Z,101157.50
2022-08-05T18:04:04.748Z,101158.38
2022-08-05T18:09:14.630Z,101156.13
2022-08-05T18:14:20.499Z,101156.03
2022-08-05T18:19:26.042Z,101149.69
2022-08-05T18:24:31.447Z,101139.88
2022-08-05T18:29:40.278Z,101135.56
2022-08-05T18:34:44.652Z,101131.03
2022-08-05T18:41:50.639Z,101139.25
2022-08-05T18:45:15.859Z,101128.78
2022-08-05T18:50:19.481Z,101132.59
2022-08-05T18:55:24.959Z,101125.69
2022-08-05T19:00:29.643Z,101120.94
2022-08-05T19:06:13.416Z,101111.31
2022-08-05T19:11:02.796Z,101118.00
2022-08-05T19:16:24.304Z,101117.63
2022-08-05T19:21:34.824Z,101109.53
2022-08-05T19:26:54.290Z,101113.94
2022-08-05T19:31:59.627Z,101119.63
2022-08-05T19:37:03.326Z,101117.84
2022-08-05T19:42:09.309Z,101115.16
2022-08-05T19:47:20.041Z,101123.41
2022-08-05T19:52:31.094Z,101115.09
2022-08-05T19:57:47.373Z,101110.72
2022-08-05T20:03:01.110Z,101111.50
2022-08-05T20:08:12.539Z,101109.91
2022-08-05T20:13:29.805Z,101111.03
2022-08-05T20:18:43.518Z,101102.34
2022-08-05T20:23:53.299Z,101100.09
2022-08-05T20:29:00.709Z,101096.25
2022-08-05T20:34:04.686Z,101099.09
2022-08-05T20:39:08.276Z,101089.88
2022-08-05T20:44:30.511Z,101092.84
2022-08-05T20:49:39.649Z,101090.19
2022-08-05T20:54:59.782Z,101094.13
2022-08-05T21:00:41.617Z,101082.81
2022-08-05T21:05:47.756Z,101086.56
2022-08-05T21:10:58.545Z,101081.69
2022-08-05T21:16:03.960Z,101080.81
2022-08-05T21:21:07.811Z,101062.41
2022-08-05T21:26:14.532Z,101072.50
2022-08-05T21:31:20.523Z,101065.28
2022-08-05T21:36:29.836Z,101061.31
2022-08-05T21:41:35.512Z,101069.47
2022-08-05T21:46:41.067Z,101080.00
2022-08-05T21:52:22.133Z,101080.22
2022-08-05T21:57:30.856Z,101084.69
2022-08-05T22:02:35.387Z,101073.19
2022-08-05T22:07:59.161Z,101064.91
2022-08-05T22:14:05.203Z,101074.84
2022-08-05T22:18:28.082Z,101068.25
2022-08-05T22:24:02.095Z,101071.56
2022-08-05T22:28:56.343Z,101062.06
2022-08-05T22:34:02.206Z,101061.06
2022-08-05T22:39:09.505Z,101057.25
2022-08-05T22:44:13.995Z,101067.59
2022-08-05T22:50:21.473Z,101060.22
2022-08-05T22:54:49.078Z,101058.38
2022-08-05T22:59:54.318Z,101048.56
2022-08-05T23:05:02.065Z,101058.34
2022-08-05T23:10:09.785Z,101057.78
2022-08-05T23:15:14.045Z,101053.88
2022-08-05T23:20:23.470Z,101050.53
2022-08-05T23:25:52.435Z,101055.91
2022-08-05T23:30:54.031Z,101053.88
2022-08-05T23:36:00.029Z,101052.09
2022-08-05T23:41:03.607Z,101062.41
2022-08-05T23:46:20.243Z,101050.50
2022-08-05T23:51:27.761Z,101045.06
2022-08-05T23:56:32.744Z,101041.69
